Time;durP1;ratioP1;P1;durP2;ratioP2;P2;SDS_P1;SDS_P2;PMS_P1;PMS_P2;Temp;Humidity;BMP_temperature;BMP_pressure;BME280_temperature;BME280_humidity;BME280_pressure;Samples;Min_cycle;Max_cycle;Signal;HPM_P1;HPM_P2
2022/05/12 00:00:20;;;;;;;4.80;4.40;;;18.40;99.90;;;;;;5034446;28;20415;-84
2022/05/12 00:02:47;;;;;;;5.88;4.28;;;18.40;99.90;;;;;;5034306;28;20394;-84
2022/05/12 00:05:13;;;;;;;4.53;3.92;;;18.20;99.90;;;;;;5034092;28;21030;-84
2022/05/12 00:07:39;;;;;;;4.13;3.83;;;18.20;99.90;;;;;;5034105;28;20407;-84
2022/05/12 00:10:08;;;;;;;4.00;3.60;;;18.10;99.90;;;;;;5034158;28;20441;-84
2022/05/12 00:12:34;;;;;;;3.67;3.38;;;17.90;99.90;;;;;;5030423;28;20391;-83
2022/05/12 00:15:00;;;;;;;4.57;3.10;;;17.90;99.90;;;;;;5034592;28;20748;-83
2022/05/12 00:17:25;;;;;;;4.00;3.28;;;17.90;99.90;;;;;;5034011;28;20379;-84
2022/05/12 00:19:51;;;;;;;6.27;3.20;;;18.00;99.90;;;;;;5034056;28;20865;-83
2022/05/12 00:22:17;;;;;;;3.30;3.00;;;18.00;99.90;;;;;;5033840;28;20391;-83
2022/05/12 00:24:42;;;;;;;4.30;3.03;;;18.00;99.90;;;;;;5034134;28;20461;-83
2022/05/12 00:27:09;;;;;;;4.80;3.13;;;18.10;99.90;;;;;;5032594;28;20395;-83
2022/05/12 00:29:34;;;;;;;5.03;2.90;;;18.10;99.90;;;;;;5034176;28;20379;-84
2022/05/12 00:32:00;;;;;;;4.30;3.00;;;18.20;99.90;;;;;;5033954;28;20383;-83
2022/05/12 00:34:25;;;;;;;3.70;2.70;;;18.20;99.90;;;;;;5033688;28;20829;-83
2022/05/12 00:36:51;;;;;;;2.80;2.60;;;18.20;99.90;;;;;;5042075;28;20459;-83
2022/05/12 00:39:17;;;;;;;3.55;2.65;;;18.20;99.90;;;;;;5036061;28;20379;-84
2022/05/12 00:41:43;;;;;;;3.47;2.50;;;18.20;99.90;;;;;;5033567;28;20387;-84
2022/05/12 00:44:12;;;;;;;2.63;2.40;;;18.30;99.90;;;;;;5032312;28;20418;-83
2022/05/12 00:46:41;;;;;;;3.72;2.58;;;18.20;99.90;;;;;;5033458;28;20399;-83
2022/05/12 00:49:09;;;;;;;4.57;2.55;;;18.20;99.90;;;;;;5033532;28;20528;-84
2022/05/12 00:51:45;;;;;;;3.45;2.35;;;18.20;99.90;;;;;;5033187;28;20878;-83
2022/05/12 00:54:35;;;;;;;3.42;2.55;;;18.20;99.90;;;;;;5033390;28;20521;-83
2022/05/12 00:57:02;;;;;;;4.80;2.40;;;18.20;99.90;;;;;;5027079;28;20945;-84
2022/05/12 00:59:32;;;;;;;3.03;2.47;;;18.20;99.90;;;;;;5033268;28;20395;-83
2022/05/12 01:02:00;;;;;;;3.30;2.17;;;18.10;99.90;;;;;;5033177;28;20864;-83
2022/05/12 01:04:28;;;;;;;2.10;1.90;;;18.20;99.90;;;;;;5031931;28;20415;-83
2022/05/12 01:06:54;;;;;;;2.90;2.17;;;18.40;99.90;;;;;;5031963;28;20391;-83
2022/05/12 01:09:20;;;;;;;3.20;2.00;;;18.40;99.90;;;;;;5033215;28;20379;-83
2022/05/12 01:11:50;;;;;;;2.88;1.90;;;18.30;99.90;;;;;;5031183;28;20943;-83
2022/05/12 01:14:16;;;;;;;2.35;2.15;;;18.30;99.90;;;;;;5033155;28;20494;-84
2022/05/12 01:16:54;;;;;;;3.28;2.40;;;18.30;99.90;;;;;;5033156;28;20880;-84
2022/05/12 01:19:33;;;;;;;3.72;2.95;;;18.30;99.90;;;;;;5032873;28;20385;-84
2022/05/12 01:21:59;;;;;;;3.72;2.80;;;18.30;99.90;;;;;;5032713;28;20466;-83
2022/05/12 01:24:35;;;;;;;3.08;2.88;;;18.20;99.90;;;;;;5033037;28;20395;-83
2022/05/12 01:27:18;;;;;;;3.75;3.30;;;17.90;99.90;;;;;;5032882;28;20387;-83
2022/05/12 01:29:45;;;;;;;4.00;3.28;;;17.60;99.90;;;;;;5032848;28;20391;-83
2022/05/12 01:32:11;;;;;;;4.78;3.28;;;17.70;99.90;;;;;;5032877;28;20395;-83
2022/05/12 01:34:37;;;;;;;3.47;3.17;;;17.80;99.90;;;;;;5032677;28;20388;-83
2022/05/12 01:37:03;;;;;;;3.60;3.30;;;17.70;99.90;;;;;;5032574;28;20406;-83
2022/05/12 01:39:28;;;;;;;3.60;3.30;;;17.70;99.90;;;;;;5025346;28;20884;-83
2022/05/12 01:41:54;;;;;;;3.60;3.30;;;17.80;99.90;;;;;;5033044;28;20753;-83
2022/05/12 01:44:19;;;;;;;4.13;3.40;;;17.70;99.90;;;;;;5032098;28;20518;-83
2022/05/12 01:46:45;;;;;;;3.40;3.10;;;17.80;99.90;;;;;;5032555;28;20922;-83
2022/05/12 01:49:11;;;;;;;3.47;3.22;;;17.80;99.90;;;;;;5032688;28;20383;-83
2022/05/12 01:51:38;;;;;;;3.80;3.50;;;17.80;99.90;;;;;;5032278;28;20860;-83
2022/05/12 01:54:04;;;;;;;3.70;3.40;;;17.90;99.90;;;;;;5032458;28;20426;-83
2022/05/12 01:56:30;;;;;;;4.05;3.50;;;17.80;99.90;;;;;;5030431;28;20501;-83
2022/05/12 01:58:56;;;;;;;3.53;3.33;;;17.70;99.90;;;;;;5027347;28;20413;-83
2022/05/12 02:01:21;;;;;;;4.17;3.80;;;17.70;99.90;;;;;;5027862;28;20387;-83
2022/05/12 02:03:47;;;;;;;4.40;4.00;;;17.50;99.90;;;;;;5030277;28;20391;-83
2022/05/12 02:06:13;;;;;;;5.45;3.63;;;17.40;99.90;;;;;;5033149;28;20407;-83
2022/05/12 02:08:38;;;;;;;3.55;3.25;;;17.40;99.90;;;;;;5019265;28;20481;-83
2022/05/12 02:11:04;;;;;;;4.05;3.72;;;17.50;99.90;;;;;;5031877;28;20387;-83
2022/05/12 02:13:29;;;;;;;3.97;3.57;;;17.30;99.90;;;;;;5032137;28;20470;-83
2022/05/12 02:15:57;;;;;;;3.70;3.40;;;17.30;99.90;;;;;;5032343;28;20390;-83
2022/05/12 02:18:24;;;;;;;5.40;3.72;;;17.40;99.90;;;;;;5032187;28;20753;-83
2022/05/12 02:20:50;;;;;;;4.10;3.70;;;17.40;99.90;;;;;;5031093;28;20399;-83
2022/05/12 02:23:15;;;;;;;3.55;3.35;;;17.30;99.90;;;;;;5032024;28;20383;-83
2022/05/12 02:25:41;;;;;;;3.90;3.33;;;17.30;99.90;;;;;;5031971;28;20403;-83
2022/05/12 02:28:08;;;;;;;4.82;3.53;;;17.30;99.90;;;;;;5032500;28;20383;-83
2022/05/12 02:30:33;;;;;;;3.93;3.57;;;17.30;99.90;;;;;;5034272;28;20478;-83
2022/05/12 02:32:59;;;;;;;3.70;3.40;;;17.30;99.90;;;;;;5031957;28;20478;-83
2022/05/12 02:35:26;;;;;;;4.10;3.70;;;17.20;99.90;;;;;;5032031;28;20787;-83
2022/05/12 02:37:52;;;;;;;3.85;3.53;;;17.00;99.90;;;;;;5047416;28;20904;-83
2022/05/12 02:40:20;;;;;;;4.65;3.45;;;17.10;99.90;;;;;;5032700;28;20399;-83
2022/05/12 02:42:46;;;;;;;3.55;3.25;;;17.10;99.90;;;;;;5023295;28;20509;-83
2022/05/12 02:45:15;;;;;;;3.75;3.45;;;17.10;99.90;;;;;;5029630;28;20490;-84
2022/05/12 02:47:41;;;;;;;3.58;3.25;;;17.20;99.90;;;;;;5030149;28;20412;-83
2022/05/12 02:50:08;;;;;;;3.60;3.30;;;16.90;99.90;;;;;;5030386;28;20453;-83
2022/05/12 02:52:34;;;;;;;3.57;3.30;;;16.80;99.90;;;;;;5031415;28;20945;-83
2022/05/12 02:55:00;;;;;;;3.60;3.30;;;16.90;99.90;;;;;;5046085;28;20430;-83
2022/05/12 02:57:25;;;;;;;3.70;3.40;;;16.90;99.90;;;;;;5033314;28;20418;-83
2022/05/12 02:59:51;;;;;;;8.10;3.87;;;16.80;99.90;;;;;;5035871;28;20480;-83
2022/05/12 03:02:18;;;;;;;3.77;3.37;;;16.80;99.90;;;;;;5034733;28;20394;-83
2022/05/12 03:04:44;;;;;;;3.40;3.07;;;16.80;99.90;;;;;;5034388;28;20498;-83
2022/05/12 03:07:09;;;;;;;3.70;3.40;;;16.90;99.90;;;;;;5023347;28;20466;-83
2022/05/12 03:09:35;;;;;;;4.50;3.50;;;16.90;99.90;;;;;;5033417;28;20390;-83
2022/05/12 03:12:01;;;;;;;4.25;3.35;;;16.80;99.90;;;;;;5033504;28;20511;-83
2022/05/12 03:14:27;;;;;;;4.87;3.40;;;16.80;99.90;;;;;;5033499;28;20434;-82
2022/05/12 03:16:53;;;;;;;3.43;3.13;;;16.90;99.90;;;;;;5033333;28;20466;-83
2022/05/12 03:19:21;;;;;;;3.50;3.20;;;16.90;99.90;;;;;;5033339;28;20395;-83
2022/05/12 03:21:46;;;;;;;3.50;3.13;;;16.90;99.90;;;;;;5034698;28;20386;-83
2022/05/12 03:24:14;;;;;;;3.80;3.50;;;16.90;99.90;;;;;;5035093;28;20387;-83
2022/05/12 03:26:40;;;;;;;3.63;2.92;;;16.80;99.90;;;;;;5033815;28;20430;-83
2022/05/12 03:29:06;;;;;;;3.50;3.20;;;16.80;99.90;;;;;;5034911;28;20383;-83
2022/05/12 03:31:31;;;;;;;2.80;2.60;;;16.90;99.90;;;;;;5034934;28;20800;-83
2022/05/12 03:33:59;;;;;;;3.23;2.90;;;16.90;99.90;;;;;;5034814;28;20857;-83
2022/05/12 03:36:25;;;;;;;4.28;2.92;;;16.90;99.90;;;;;;5034607;28;20399;-83
2022/05/12 03:38:51;;;;;;;4.43;3.22;;;16.90;99.90;;;;;;5033484;28;20400;-83
2022/05/12 03:41:16;;;;;;;2.92;2.72;;;16.80;99.90;;;;;;5033706;28;20391;-84
2022/05/12 03:46:26;;;;;;;3.33;2.93;;;17.00;99.90;;;;;;5033610;28;20472;-84
2022/05/12 03:48:52;;;;;;;4.77;3.03;;;16.80;99.90;;;;;;5033121;28;20464;-83
2022/05/12 03:51:17;;;;;;;3.13;2.55;;;16.70;99.90;;;;;;5034357;28;20920;-83
2022/05/12 03:53:43;;;;;;;4.00;2.78;;;16.50;99.90;;;;;;5034586;28;20371;-83
2022/05/12 03:56:09;;;;;;;3.43;2.83;;;16.50;99.90;;;;;;5034543;28;20387;-83
2022/05/12 03:58:36;;;;;;;3.95;2.58;;;16.50;99.90;;;;;;5034381;28;20441;-83
2022/05/12 04:01:03;;;;;;;3.72;2.60;;;16.60;99.90;;;;;;5034526;28;20460;-83
2022/05/12 04:03:29;;;;;;;3.42;2.55;;;16.70;99.90;;;;;;5034410;28;20383;-83
2022/05/12 04:05:56;;;;;;;3.67;2.60;;;16.70;99.90;;;;;;5034418;28;20412;-83
2022/05/12 04:08:22;;;;;;;3.65;2.55;;;16.70;99.90;;;;;;5032525;28;20419;-82
2022/05/12 04:10:49;;;;;;;4.03;2.43;;;16.60;99.90;;;;;;5032140;28;20434;-82
2022/05/12 04:13:16;;;;;;;3.85;2.50;;;16.70;99.90;;;;;;5031448;28;20391;-83
2022/05/12 04:15:42;;;;;;;3.67;2.58;;;16.60;99.90;;;;;;5030785;28;20411;-84
2022/05/12 04:18:08;;;;;;;4.07;2.50;;;16.60;99.90;;;;;;5034214;28;20486;-83
2022/05/12 04:20:34;;;;;;;3.03;2.40;;;16.60;99.90;;;;;;5020419;28;20853;-82
2022/05/12 04:23:00;;;;;;;4.35;2.30;;;16.60;99.90;;;;;;5033975;28;20398;-83
2022/05/12 04:25:26;;;;;;;3.20;2.45;;;16.70;99.90;;;;;;5032435;28;20415;-83
2022/05/12 04:27:52;;;;;;;2.45;2.25;;;16.60;99.90;;;;;;5033630;28;20383;-83
2022/05/12 04:30:23;;;;;;;2.80;2.55;;;16.60;99.90;;;;;;5033377;28;20963;-83
2022/05/12 04:32:49;;;;;;;4.13;2.72;;;16.60;99.90;;;;;;5033950;28;20848;-83
2022/05/12 04:35:14;;;;;;;2.90;2.60;;;16.70;99.90;;;;;;5028637;28;20414;-83
2022/05/12 04:37:47;;;;;;;4.13;2.92;;;16.70;99.90;;;;;;5032190;28;20398;-83
2022/05/12 04:40:18;;;;;;;4.15;3.13;;;16.80;99.90;;;;;;5024301;28;20449;-84
2022/05/12 04:42:44;;;;;;;3.65;3.00;;;16.80;99.90;;;;;;5033751;28;20608;-82
2022/05/12 04:45:10;;;;;;;4.80;2.90;;;16.80;99.90;;;;;;5033604;28;20411;-83
2022/05/12 04:47:37;;;;;;;4.67;2.90;;;16.70;99.90;;;;;;5034111;28;20474;-84
2022/05/12 04:50:04;;;;;;;2.83;2.50;;;16.70;99.90;;;;;;5033469;28;20390;-84
2022/05/12 04:52:30;;;;;;;3.85;2.50;;;16.50;99.90;;;;;;5032077;28;20399;-84
2022/05/12 04:54:56;;;;;;;5.28;2.58;;;16.40;99.90;;;;;;5033409;28;20387;-84
2022/05/12 04:57:22;;;;;;;2.47;2.25;;;16.30;99.90;;;;;;5033319;28;20391;-85
2022/05/12 04:59:49;;;;;;;5.40;2.83;;;16.20;99.90;;;;;;5033077;28;20415;-84
2022/05/12 05:02:15;;;;;;;4.90;2.60;;;16.20;99.90;;;;;;5033297;28;20384;-84
2022/05/12 05:04:41;;;;;;;4.80;2.80;;;16.30;99.90;;;;;;5031535;28;20460;-85
2022/05/12 05:07:08;;;;;;;5.47;2.70;;;16.30;99.90;;;;;;5032678;28;20478;-85
2022/05/12 05:09:34;;;;;;;4.00;2.55;;;16.30;99.90;;;;;;5033171;28;20809;-84
2022/05/12 05:12:00;;;;;;;4.50;2.90;;;16.30;99.90;;;;;;5032959;28;20470;-85
2022/05/12 05:14:25;;;;;;;6.43;2.65;;;16.30;99.90;;;;;;5031038;28;20403;-85
2022/05/12 05:16:52;;;;;;;4.70;2.50;;;16.30;99.90;;;;;;5029167;28;20413;-84
2022/05/12 05:19:17;;;;;;;5.35;2.70;;;16.40;99.90;;;;;;5029663;28;20395;-84
2022/05/12 05:21:43;;;;;;;6.60;2.90;;;16.40;99.90;;;;;;5029010;28;20399;-85
2022/05/12 05:24:09;;;;;;;6.17;2.70;;;16.50;99.90;;;;;;5031693;28;20391;-85
2022/05/12 05:26:34;;;;;;;7.63;2.60;;;16.60;99.90;;;;;;5029235;28;20498;-84
2022/05/12 05:29:01;;;;;;;4.65;2.50;;;16.70;99.90;;;;;;5030854;28;20399;-84
2022/05/12 05:31:27;;;;;;;5.30;2.60;;;16.70;99.90;;;;;;5023008;28;20379;-85
2022/05/12 05:33:53;;;;;;;4.97;2.73;;;16.70;99.90;;;;;;5027264;28;20521;-84
2022/05/12 05:36:19;;;;;;;6.60;2.33;;;16.80;99.90;;;;;;5031325;28;20407;-84
2022/05/12 05:38:45;;;;;;;4.97;2.40;;;16.80;99.90;;;;;;5031004;28;20402;-84
2022/05/12 05:41:11;;;;;;;3.17;2.88;;;16.80;99.90;;;;;;5031477;28;20387;-84
2022/05/12 05:43:38;;;;;;;3.75;2.58;;;17.00;99.90;;;;;;5032086;28;20394;-84
2022/05/12 05:46:05;;;;;;;5.60;2.58;;;17.00;99.90;;;;;;5032504;28;20644;-85
2022/05/12 05:48:31;;;;;;;6.05;2.58;;;17.10;99.90;;;;;;5031556;28;20417;-85
2022/05/12 05:53:42;;;;;;;8.77;2.58;;;17.20;99.90;;;;;;5018516;28;20736;-84
2022/05/12 05:56:15;;;;;;;6.53;2.45;;;17.30;99.90;;;;;;5031940;28;20478;-85
2022/05/12 05:58:45;;;;;;;7.50;2.50;;;17.30;99.90;;;;;;5032046;28;20390;-86
2022/05/12 06:01:12;;;;;;;7.45;2.40;;;17.40;99.90;;;;;;5027370;28;20389;-85
2022/05/12 06:03:38;;;;;;;5.28;2.40;;;17.40;99.90;;;;;;5020761;28;20455;-85
2022/05/12 06:06:04;;;;;;;6.60;2.40;;;17.40;99.90;;;;;;5012301;28;20405;-85
2022/05/12 06:08:30;;;;;;;3.33;2.35;;;17.50;99.90;;;;;;5013047;28;20391;-84
2022/05/12 06:10:58;;;;;;;3.97;2.30;;;17.60;99.90;;;;;;5025284;28;20464;-84
2022/05/12 06:13:23;;;;;;;4.85;2.10;;;17.80;99.90;;;;;;5013098;28;20893;-85
2022/05/12 06:15:50;;;;;;;5.35;2.20;;;17.80;99.90;;;;;;5019188;28;20423;-84
2022/05/12 06:18:17;;;;;;;3.40;2.20;;;17.80;99.90;;;;;;5024077;28;20465;-85
2022/05/12 06:20:45;;;;;;;2.85;2.05;;;17.90;99.90;;;;;;5032271;28;20383;-85
2022/05/12 06:23:12;;;;;;;3.85;2.28;;;17.90;99.90;;;;;;5031995;28;20498;-85
2022/05/12 06:25:38;;;;;;;3.40;2.40;;;18.10;99.90;;;;;;5032002;28;20402;-85
2022/05/12 06:28:04;;;;;;;5.22;2.28;;;18.10;99.90;;;;;;5034772;28;20391;-85
2022/05/12 06:30:30;;;;;;;2.70;1.95;;;18.10;99.90;;;;;;5033403;28;20437;-85
2022/05/12 06:32:56;;;;;;;4.85;2.28;;;18.10;99.90;;;;;;5034819;28;20888;-86
2022/05/12 06:35:24;;;;;;;4.53;2.00;;;18.20;99.90;;;;;;5036048;28;20433;-85
2022/05/12 06:37:50;;;;;;;3.08;2.22;;;18.20;99.90;;;;;;5033403;28;20387;-86
2022/05/12 06:40:17;;;;;;;3.75;2.10;;;18.30;99.90;;;;;;5028581;28;20383;-86
2022/05/12 06:42:43;;;;;;;2.90;2.03;;;18.40;99.90;;;;;;5035991;28;20455;-86
2022/05/12 06:45:13;;;;;;;3.70;1.98;;;18.40;99.90;;;;;;5032089;28;20760;-85
2022/05/12 06:47:45;;;;;;;3.90;2.20;;;18.40;99.90;;;;;;5033312;28;20517;-85
2022/05/12 06:50:11;;;;;;;3.60;2.10;;;18.50;99.90;;;;;;5034644;28;20527;-85
2022/05/12 06:52:37;;;;;;;5.47;2.33;;;18.60;99.90;;;;;;5024812;28;20909;-84
2022/05/12 06:55:03;;;;;;;3.55;2.30;;;18.70;99.90;;;;;;5032024;28;20407;-85
2022/05/12 06:57:29;;;;;;;2.85;2.15;;;18.80;99.90;;;;;;5050967;28;20399;-85
2022/05/12 06:59:55;;;;;;;4.00;2.10;;;19.00;99.90;;;;;;5034804;28;20406;-86
2022/05/12 07:02:22;;;;;;;4.85;1.90;;;19.10;99.90;;;;;;5033769;28;20445;-86
2022/05/12 07:04:52;;;;;;;4.82;2.10;;;19.30;99.90;;;;;;5030463;28;20443;-84
2022/05/12 07:07:20;;;;;;;2.75;2.00;;;19.40;99.90;;;;;;5034543;28;20444;-85
2022/05/12 07:09:46;;;;;;;5.15;2.20;;;19.30;99.90;;;;;;5035223;28;20457;-85
2022/05/12 07:12:13;;;;;;;4.45;2.30;;;19.40;99.90;;;;;;5033765;28;20387;-84
2022/05/12 07:14:39;;;;;;;3.80;2.45;;;19.40;99.90;;;;;;5035207;28;20919;-84
2022/05/12 07:17:05;;;;;;;5.32;2.13;;;19.50;99.90;;;;;;5033914;28;20407;-83
2022/05/12 07:19:33;;;;;;;3.22;2.25;;;19.60;99.90;;;;;;5048973;28;20876;-84
2022/05/12 07:27:27;;;;;;;6.05;2.20;;;19.80;99.90;;;;;;5032795;28;20395;-84
2022/05/12 07:29:53;;;;;;;33.43;3.33;;;20.00;99.90;;;;;;5034161;28;20391;-85
2022/05/12 07:32:19;;;;;;;4.47;2.07;;;20.10;99.90;;;;;;5034493;28;20779;-85
2022/05/12 07:34:45;;;;;;;40.97;3.88;;;20.20;99.90;;;;;;5033945;28;20490;-85
2022/05/12 07:37:10;;;;;;;14.13;2.57;;;20.20;99.90;;;;;;5034783;28;20462;-84
2022/05/12 07:39:36;;;;;;;3.87;1.90;;;20.20;99.90;;;;;;5029118;28;20389;-84
2022/05/12 07:42:04;;;;;;;2.83;2.00;;;20.20;99.90;;;;;;5024772;28;20383;-84
2022/05/12 07:44:34;;;;;;;3.20;2.10;;;20.20;99.90;;;;;;5034089;28;20387;-84
2022/05/12 07:47:02;;;;;;;4.25;2.30;;;20.30;99.90;;;;;;5034757;28;20399;-85
2022/05/12 07:49:31;;;;;;;6.97;2.45;;;20.50;99.90;;;;;;5034354;28;20521;-84
2022/05/12 07:51:57;;;;;;;5.40;2.10;;;20.60;99.90;;;;;;5034452;28;20379;-84
2022/05/12 07:54:23;;;;;;;4.35;2.20;;;20.70;99.90;;;;;;5031621;28;20756;-84
2022/05/12 07:56:49;;;;;;;4.60;2.30;;;20.70;99.90;;;;;;5034469;28;20440;-84
2022/05/12 07:59:15;;;;;;;5.57;2.42;;;20.80;99.90;;;;;;5033130;28;20415;-85
2022/05/12 08:01:40;;;;;;;20.75;3.13;;;20.90;99.90;;;;;;5034493;28;20391;-84
2022/05/12 08:04:06;;;;;;;14.95;2.50;;;20.90;99.90;;;;;;5033510;28;20832;-84
2022/05/12 08:06:33;;;;;;;22.25;3.60;;;20.90;99.90;;;;;;5034501;28;20407;-85
2022/05/12 08:08:59;;;;;;;6.05;2.50;;;21.20;99.90;;;;;;5032628;28;20427;-85
2022/05/12 08:11:24;;;;;;;6.27;2.30;;;21.30;99.90;;;;;;5033949;28;20760;-85
2022/05/12 08:13:51;;;;;;;4.60;2.03;;;21.30;99.90;;;;;;5033382;28;20397;-85
2022/05/12 08:16:19;;;;;;;5.30;2.40;;;21.40;99.90;;;;;;5033635;28;20395;-85
2022/05/12 08:18:46;;;;;;;6.20;2.50;;;21.40;99.90;;;;;;5036920;28;20416;-85
2022/05/12 08:21:13;;;;;;;5.88;2.33;;;21.40;99.90;;;;;;5034084;28;20478;-85
2022/05/12 08:23:39;;;;;;;8.70;2.70;;;21.30;99.90;;;;;;5029120;28;20479;-84
2022/05/12 08:26:05;;;;;;;6.50;2.40;;;21.40;99.90;;;;;;5032466;28;20411;-84
2022/05/12 08:28:31;;;;;;;3.80;2.10;;;21.40;99.90;;;;;;5033900;28;20387;-84
2022/05/12 08:30:57;;;;;;;5.50;2.13;;;21.70;99.90;;;;;;5022952;28;20387;-83
2022/05/12 08:33:23;;;;;;;5.55;2.70;;;21.80;99.90;;;;;;5032662;28;20480;-84
2022/05/12 08:35:50;;;;;;;5.18;2.40;;;22.00;99.90;;;;;;5033042;28;20395;-84
2022/05/12 08:38:18;;;;;;;5.32;2.60;;;22.10;99.90;;;;;;5033955;28;20860;-83
2022/05/12 08:41:04;;;;;;;4.03;2.25;;;21.80;99.90;;;;;;5033617;28;20391;-84
2022/05/12 08:43:51;;;;;;;3.30;2.50;;;21.90;99.90;;;;;;5032824;28;20399;-83
2022/05/12 08:46:24;;;;;;;4.68;2.50;;;21.80;99.90;;;;;;5032187;28;20434;-84
2022/05/12 08:49:02;;;;;;;4.53;2.47;;;22.00;99.90;;;;;;5033547;28;20390;-84
2022/05/12 08:51:33;;;;;;;5.32;2.55;;;22.00;99.90;;;;;;5033639;28;20402;-84
2022/05/12 08:54:04;;;;;;;12.77;3.10;;;22.00;99.90;;;;;;5032331;28;20384;-84
2022/05/12 08:56:30;;;;;;;5.45;2.47;;;22.20;99.90;;;;;;5033330;28;20470;-85
2022/05/12 08:58:57;;;;;;;7.18;2.67;;;22.50;99.90;;;;;;5033728;28;20788;-83
2022/05/12 09:02:28;;;;;;;6.95;2.70;;;22.50;99.90;;;;;;5033329;28;20930;-84
2022/05/12 09:05:08;;;;;;;9.65;2.60;;;22.50;99.90;;;;;;4991563;28;20437;-87
2022/05/12 09:07:58;;;;;;;5.90;2.58;;;22.50;99.90;;;;;;4991801;28;20401;-84
2022/05/12 09:10:49;;;;;;;5.50;2.85;;;22.50;99.90;;;;;;5021929;28;20903;-84
2022/05/12 09:13:47;;;;;;;6.50;2.67;;;22.50;99.90;;;;;;5046107;28;20402;-84
2022/05/12 09:16:26;;;;;;;24.63;3.70;;;22.50;99.90;;;;;;5022876;28;20398;-84
2022/05/12 09:18:53;;;;;;;9.70;2.60;;;22.70;99.90;;;;;;5032901;28;20383;-84
2022/05/12 09:21:37;;;;;;;22.30;3.33;;;22.90;99.90;;;;;;5031277;28;20389;-84
2022/05/12 09:24:04;;;;;;;75.57;5.45;;;22.80;99.90;;;;;;5032777;28;20448;-84
2022/05/12 09:26:44;;;;;;;21.30;3.25;;;23.10;99.90;;;;;;5032843;28;20407;-83
2022/05/12 09:29:14;;;;;;;4.07;2.60;;;23.20;99.90;;;;;;5032731;28;20470;-84
2022/05/12 09:31:42;;;;;;;4.15;2.88;;;23.20;99.90;;;;;;5032665;28;20387;-85
2022/05/12 09:34:25;;;;;;;5.47;2.65;;;23.20;99.90;;;;;;5031619;28;20388;-85
2022/05/12 09:36:51;;;;;;;5.27;2.30;;;23.20;99.90;;;;;;5033060;28;20380;-85
2022/05/12 09:39:39;;;;;;;5.85;2.55;;;23.60;99.90;;;;;;5032670;28;20410;-84
2022/05/12 09:42:33;;;;;;;15.90;3.07;;;23.70;99.90;;;;;;5032629;28;20884;-84
2022/05/12 09:45:02;;;;;;;5.82;2.70;;;23.90;99.90;;;;;;5032452;28;20407;-85
2022/05/12 09:47:30;;;;;;;4.90;2.63;;;23.70;99.90;;;;;;5032499;28;20398;-84
2022/05/12 09:50:22;;;;;;;7.00;2.80;;;23.70;99.90;;;;;;5039139;28;20383;-85
2022/05/12 09:52:54;;;;;;;6.60;3.00;;;23.70;99.90;;;;;;5028494;28;20472;-85
2022/05/12 09:55:23;;;;;;;30.55;4.40;;;23.70;99.90;;;;;;5032370;28;20426;-85
2022/05/12 09:58:15;;;;;;;8.02;3.15;;;23.90;99.90;;;;;;5032274;28;20395;-85
2022/05/12 10:00:44;;;;;;;21.05;3.28;;;24.10;99.90;;;;;;5032119;28;20386;-85
2022/05/12 10:09:08;;;;;;;18.83;3.38;;;24.20;99.90;;;;;;5032224;28;20379;-85
2022/05/12 10:12:14;;;;;;;6.28;3.00;;;24.40;99.90;;;;;;5032234;28;20375;-85
2022/05/12 10:14:49;;;;;;;4.70;2.53;;;24.70;99.90;;;;;;5029778;28;20397;-86
2022/05/12 10:17:37;;;;;;;5.65;2.70;;;25.00;99.90;;;;;;5032045;28;20395;-85
2022/05/12 10:20:13;;;;;;;4.78;2.50;;;25.10;99.90;;;;;;5032159;28;20391;-86
2022/05/12 10:23:01;;;;;;;5.40;2.80;;;25.40;99.90;;;;;;5039850;28;20431;-86
2022/05/12 10:25:47;;;;;;;7.45;2.65;;;25.30;99.90;;;;;;5036441;28;20407;-86
2022/05/12 10:28:38;;;;;;;6.32;2.97;;;25.30;99.90;;;;;;5032063;28;20387;-86
2022/05/12 10:31:04;;;;;;;13.35;3.35;;;25.50;99.90;;;;;;5032008;28;20387;-86
2022/05/12 10:33:30;;;;;;;7.80;2.75;;;25.60;99.90;;;;;;5031993;28;20479;-85
2022/05/12 10:36:12;;;;;;;5.40;2.40;;;25.40;99.90;;;;;;5031889;28;20390;-86
2022/05/12 10:38:40;;;;;;;5.80;2.58;;;25.80;99.90;;;;;;5031932;28;20490;-86
2022/05/12 10:41:15;;;;;;;8.43;2.60;;;;;;;;;;5031857;28;20903;-86
2022/05/12 10:43:48;;;;;;;15.27;3.10;;;;;;;;;;5031851;28;20391;-87
2022/05/12 10:46:43;;;;;;;8.55;2.42;;;;;;;;;;5032238;28;20764;-86
2022/05/12 10:49:20;;;;;;;5.03;2.08;;;;;;;;;;4995465;28;20391;-87
2022/05/12 10:51:53;;;;;;;4.22;2.30;;;;;;;;;;5031929;28;20872;-86
2022/05/12 10:54:24;;;;;;;4.25;2.47;;;;;;;;;;5031763;28;20368;-87
2022/05/12 10:56:50;;;;;;;5.73;2.33;;;;;;;;;;5032087;28;20783;-86
2022/05/12 10:59:22;;;;;;;4.20;2.23;;;;;;;;;;5031767;28;20383;-87
2022/05/12 11:01:52;;;;;;;4.40;2.40;;;;;;;;;;5031650;28;20387;-86
2022/05/12 11:04:29;;;;;;;3.13;1.90;;;;;;;;;;5031631;28;20458;-87
2022/05/12 11:06:58;;;;;;;8.63;2.40;;;;;;;;;;5031743;28;20411;-86
2022/05/12 11:09:31;;;;;;;7.07;2.60;;;;;;;;;;5031515;28;20444;-86
2022/05/12 11:11:59;;;;;;;2.90;2.05;;;;;;;;;;5031601;28;20379;-86
2022/05/12 11:14:30;;;;;;;3.47;2.50;;;;;;;;;;5030465;28;20394;-86
2022/05/12 11:17:06;;;;;;;5.20;2.20;;;;;;;;;;5032114;28;20506;-86
2022/05/12 11:19:32;;;;;;;12.25;2.55;;;;;;;;;;5035159;28;20855;-87
2022/05/12 11:22:04;;;;;;;4.60;2.40;;;;;;;;;;5035120;28;20390;-86
2022/05/12 11:24:35;;;;;;;5.13;2.42;;;;;;;;;;5034610;28;20375;-88
2022/05/12 11:27:20;;;;;;;5.03;2.10;;;;;;;;;;5034612;28;20541;-87
2022/05/12 11:29:57;;;;;;;4.18;2.13;;;;;;;;;;5034920;28;20462;-86
2022/05/12 11:32:26;;;;;;;3.67;2.20;;;;;;;;;;5034933;28;20371;-87
2022/05/12 11:34:54;;;;;;;3.00;2.20;;;;;;;;;;5034955;28;20418;-87
2022/05/12 11:37:33;;;;;;;14.05;2.80;;;;;;;;;;5034916;28;20441;-86
2022/05/12 11:40:00;;;;;;;3.75;2.05;;;;;;;;;;5034992;28;20745;-88
2022/05/12 11:42:28;;;;;;;4.30;2.25;;;;;;;;;;5035093;28;20387;-86
2022/05/12 11:45:02;;;;;;;5.90;2.25;;;;;;;;;;5033457;28;20919;-87
2022/05/12 11:47:48;;;;;;;7.25;2.38;;;;;;;;;;5033668;28;20402;-87
2022/05/12 11:50:31;;;;;;;2.60;2.10;;;;;;;;;;5034699;28;20795;-86
2022/05/12 11:52:58;;;;;;;2.88;1.98;;;;;;;;;;5034682;28;20398;-86
2022/05/12 11:55:27;;;;;;;3.35;2.22;;;;;;;;;;5034646;28;20391;-87
2022/05/12 11:58:13;;;;;;;3.10;1.90;;;;;;;;;;5034492;28;20384;-87
2022/05/12 12:00:43;;;;;;;3.55;2.08;;;;;;;;;;5034534;28;20784;-86
2022/05/12 12:03:22;;;;;;;2.63;2.00;;;;;;;;;;5032762;28;20379;-87
2022/05/12 12:05:50;;;;;;;2.63;2.13;;;;;;;;;;5022746;28;20403;-87
2022/05/12 12:08:31;;;;;;;3.38;2.13;;;;;;;;;;5034372;28;20926;-87
2022/05/12 12:11:20;;;;;;;2.60;2.20;;;;;;;;;;5034428;28;20390;-88
2022/05/12 12:13:47;;;;;;;2.47;1.90;;;;;;;;;;5036150;28;20387;-88
2022/05/12 12:16:15;;;;;;;3.15;2.10;;;;;;;;;;5034383;28;20383;-87
2022/05/12 12:18:41;;;;;;;3.70;2.33;;;;;;;;;;5033891;28;20386;-88
2022/05/12 12:21:25;;;;;;;6.57;2.10;;;;;;;;;;5034387;28;20379;-87
2022/05/12 12:24:08;;;;;;;4.57;1.87;;;;;;;;;;5048027;28;20858;-86
2022/05/12 12:26:37;;;;;;;4.25;1.92;;;;;;;;;;5035897;28;20450;-87
2022/05/12 12:29:09;;;;;;;6.28;2.20;;;;;;;;;;5049819;28;20414;-85
2022/05/12 12:31:44;;;;;;;15.30;3.17;;;;;;;;;;5028942;28;20418;-89
2022/05/12 12:34:27;;;;;;;3.30;1.90;;;;;;;;;;5030680;28;20395;-89
2022/05/12 12:36:55;;;;;;;2.90;1.73;;;;;;;;;;5042128;28;20418;-90
2022/05/12 12:39:36;;;;;;;4.40;2.13;;;;;;;;;;5031894;28;20391;-89
2022/05/12 12:42:08;;;;;;;4.45;2.10;;;;;;;;;;5031137;28;20383;-90
2022/05/12 12:44:41;;;;;;;2.60;1.73;;;;;;;;;;5030266;28;20744;-90
2022/05/12 12:47:07;;;;;;;4.53;1.95;;;;;;;;;;5031449;28;20957;-88
2022/05/12 12:49:43;;;;;;;3.88;2.08;;;;;;;;;;5032304;28;20387;-90
2022/05/12 12:52:10;;;;;;;3.53;1.85;;;;;;;;;;5040000;28;20376;-90
2022/05/12 12:57:25;;;;;;;4.37;2.03;;;;;;;;;;5033516;28;20377;-89
2022/05/12 12:59:55;;;;;;;3.15;1.95;;;;;;;;;;5032830;28;20415;-88
2022/05/12 13:02:41;;;;;;;4.40;2.72;;;;;;;;;;5046039;28;20433;-89
2022/05/12 13:05:10;;;;;;;4.70;2.13;;;;;;;;;;5031661;28;20414;-91
2022/05/12 13:07:37;;;;;;;3.10;1.98;;;;;;;;;;5044813;28;20387;-91
2022/05/12 13:10:07;;;;;;;2.50;2.17;;;;;;;;;;5033264;28;20391;-90
2022/05/12 13:12:34;;;;;;;3.92;1.98;;;;;;;;;;5033762;28;20462;-92
2022/05/12 13:15:00;;;;;;;7.40;2.30;;;;;;;;;;5034874;28;20398;-91
2022/05/12 13:17:26;;;;;;;15.85;2.53;;;;;;;;;;5034323;28;20386;-93
2022/05/12 13:19:53;;;;;;;6.85;2.30;;;;;;;;;;5304687;22;20926;-90
2022/05/12 13:22:25;;;;;;;3.73;1.90;;;;;;;;;;5067107;28;20374;-91
2022/05/12 13:24:52;;;;;;;4.43;2.00;;;;;;;;;;5062996;28;20892;-91
2022/05/12 13:27:20;;;;;;;3.87;2.20;;;;;;;;;;5061557;28;20415;-91
2022/05/12 13:29:49;;;;;;;11.38;2.85;;;;;;;;;;5071159;28;20394;-91
2022/05/12 13:32:32;;;;;;;5.47;2.05;;;;;;;;;;5059208;28;20395;-91
2022/05/12 13:35:04;;;;;;;6.15;2.00;;;;;;;;;;5062778;28;20388;-90
2022/05/12 13:37:31;;;;;;;2.20;1.73;;;;;;;;;;5052127;28;20405;-92
2022/05/12 13:40:01;;;;;;;5.93;2.10;;;;;;;;;;5045502;28;20407;-89
2022/05/12 13:42:36;;;;;;;4.28;1.88;;;;;;;;;;5051792;28;20405;-90